CheckWX is a tool to help pilots better visualize weather data.  It is not intended as a substitute for an official pre-flight weather briefing.

06:06:47 UTC

UUDD TAF
Domodedovo International Airport
Moscow, Russian Federation
TAF UUDD 240455Z 2406/2512 31006MPS CAVOK TX22/2412Z TN06/2501Z TEMPO 2419/2505 VRB01MPS

Apr-24@
06:00 UTC

Apr-24 @ 06:00 UTC

Apr-25@
12:00 UTC

Apr-25 @ 12:00 UTC

TAF UUDD 240455Z 2406/2512 31006MPS CAVOK TX22/2412Z TN06/2501Z
Wind
  • 310° at 12 KTS
Cloud Levels
  • No significant clouds

Apr-24@
19:00 UTC

Apr-24 @ 19:00 UTC

Apr-25@
05:00 UTC

Apr-25 @ 05:00 UTC

TEMPO 2419/2505 VRB01MPS

Temporary

Temporary Changes expected for less than half the time period

Wind
  • Variable at 2 KTS